aviador You're here:

KCLI Decoded Metar

CLINTONVILLE in WI, USA
Report Time2018-01-22 11:55:00
UTC Time2018-01-22 12:06:34
Flight Rules ifr IFR
Wind070° at 14 Gusting to 19 kt
W.Decomp.*RWY 09: 13.3 kt HW 4.3 kt LCW
RWY 04: 11.9 kt HW 7.4 kt RCW
RWY 14: 5.2 kt HW 13 kt LCW
W.Rank070° ranks 24
Current wind is above 070° avg. (6.0)
Visibility8047 m
Phenomena:Mist
Clouds:Overcast 006 Hf
Expected CloudBase > 400 ft AGL from Temp-Dew spread
Ceiling600 ft
Temp01°C (ISA -12)
Dew Point00°C (93% RH)
AAT-6.0°C
QNH1010 hPa
Density Alt-495 ft
Elevation820 ft
Report Wrong Elevation
Raw Report
KCLI 221155Z AUTO 07014G19KT 5SM BR OVC006 01/00 A2983 RMK AO2=

Extra information for KCLI:More info

Metar Taf Metar & Taf Last 4 Metars F.Rules Stats Wind Profile Meteogram Temp Stats Airport Information Weather charts Add Link Nearby VenuesMetar ALERT Operation Metar Decoded Social comments

AIRNAV info for KCLI